Observation data for Spur on 11/19/2019      Previous  Date       Current Mesonet Observations  Soil Data  Daily Summary Page  Observations in Plain Language
KSP1 190600Z 33005KT 06/02 A2995 RMK A01 T00610017  RH  075%=      5-min Rain = 0
KSP1 190605Z 32005KT 06/02 A2995 RMK A01 T00580016  RH  075%=      5-min Rain = 0
KSP1 190610Z 32005KT 06/02 A2995 RMK A01 T00590015  RH  074%=      5-min Rain = 0
KSP1 190615Z 33005KT 06/01 A2995 RMK A01 T00600014  RH  074%=      5-min Rain = 0
KSP1 190620Z 33006KT 06/02 A2995 RMK A01 T00590015  RH  074%=      5-min Rain = 0
KSP1 190625Z 33005KT 06/02 A2995 RMK A01 T00590015  RH  074%=      5-min Rain = 0
KSP1 190630Z 33006KT 06/02 A2995 RMK A01 T00590015  RH  074%=      5-min Rain = 0
KSP1 190635Z 33006KT 06/02 A2995 RMK A01 T00580015  RH  075%=      5-min Rain = 0
KSP1 190640Z 32006KT 06/01 A2995 RMK A01 T00580014  RH  075%=      5-min Rain = 0
KSP1 190645Z 32006KT 06/01 A2995 RMK A01 T00580013  RH  074%=      5-min Rain = 0
KSP1 190650Z 33006KT 06/01 A2995 RMK A01 T00580014  RH  074%=      5-min Rain = 0
KSP1 190655Z 33006KT 06/02 A2995 RMK A01 T00580015  RH  075%=      5-min Rain = 0
KSP1 190700Z 33007KT 06/02 A2995 RMK A01 T00580015  RH  075%=      5-min Rain = 0
KSP1 190705Z 34007KT 06/02 A2995 RMK A01 T00590015  RH  074%=      5-min Rain = 0
KSP1 190710Z 35006KT 06/01 A2994 RMK A01 T00560014  RH  076%=      5-min Rain = 0
KSP1 190715Z 34006KT 05/01 A2994 RMK A01 T00530014  RH  077%=      5-min Rain = 0
KSP1 190720Z 33004KT 05/02 A2994 RMK A01 T00540016  RH  078%=      5-min Rain = 0
KSP1 190725Z 33004KT 06/02 A2994 RMK A01 T00570016  RH  076%=      5-min Rain = 0
KSP1 190730Z 32005KT 06/01 A2994 RMK A01 T00550014  RH  076%=      5-min Rain = 0
KSP1 190735Z 31006KT 06/02 A2995 RMK A01 T00550017  RH  077%=      5-min Rain = 0
KSP1 190740Z 31006KT 06/02 A2995 RMK A01 T00570017  RH  077%=      5-min Rain = 0
KSP1 190745Z 32005KT 06/02 A2994 RMK A01 T00600016  RH  074%=      5-min Rain = 0
KSP1 190750Z 32005KT 06/01 A2994 RMK A01 T00570014  RH  075%=      5-min Rain = 0
KSP1 190755Z 33005KT 06/01 A2994 RMK A01 T00560013  RH  075%=      5-min Rain = 0
KSP1 190800Z 33006KT 06/01 A2994 RMK A01 T00570013  RH  074%=      5-min Rain = 0
KSP1 190805Z 33007KT 06/01 A2995 RMK A01 T00580014  RH  075%=      5-min Rain = 0
KSP1 190810Z 33006KT 06/01 A2995 RMK A01 T00570014  RH  075%=      5-min Rain = 0
KSP1 190815Z 33006KT 06/01 A2995 RMK A01 T00550014  RH  076%=      5-min Rain = 0
KSP1 190820Z 33006KT 06/02 A2995 RMK A01 T00560015  RH  076%=      5-min Rain = 0
KSP1 190825Z 33007KT 06/01 A2995 RMK A01 T00580014  RH  075%=      5-min Rain = 0
KSP1 190830Z 33006KT 06/02 A2995 RMK A01 T00590015  RH  074%=      5-min Rain = 0
KSP1 190835Z 33006KT 06/01 A2995 RMK A01 T00570014  RH  075%=      5-min Rain = 0
KSP1 190840Z 33006KT 05/01 A2995 RMK A01 T00540012  RH  075%=      5-min Rain = 0
KSP1 190845Z 33006KT 05/01 A2995 RMK A01 T00510012  RH  077%=      5-min Rain = 0
KSP1 190850Z 33006KT 05/01 A2995 RMK A01 T00520014  RH  077%=      5-min Rain = 0
KSP1 190855Z 32005KT 06/02 A2995 RMK A01 T00560017  RH  077%=      5-min Rain = 0
KSP1 190900Z 32006KT 06/02 A2995 RMK A01 T00580017  RH  076%=      5-min Rain = 0
KSP1 190905Z 32006KT 06/02 A2995 RMK A01 T00590017  RH  075%=      5-min Rain = 0
KSP1 190910Z 33006KT 06/01 A2995 RMK A01 T00570013  RH  074%=      5-min Rain = 0
KSP1 190915Z 33006KT 06/01 A2995 RMK A01 T00550012  RH  075%=      5-min Rain = 0
KSP1 190920Z 33006KT 05/01 A2995 RMK A01 T00530012  RH  076%=      5-min Rain = 0
KSP1 190925Z 33006KT 05/01 A2994 RMK A01 T00510012  RH  077%=      5-min Rain = 0
KSP1 190930Z 33006KT 05/01 A2994 RMK A01 T00530014  RH  077%=      5-min Rain = 0
KSP1 190935Z 33006KT 06/01 A2994 RMK A01 T00550014  RH  076%=      5-min Rain = 0
KSP1 190940Z 34007KT 05/01 A2994 RMK A01 T00540014  RH  076%=      5-min Rain = 0
KSP1 190945Z 33007KT 06/02 A2995 RMK A01 T00590016  RH  075%=      5-min Rain = 0
KSP1 190950Z 33007KT 06/02 A2995 RMK A01 T00590015  RH  075%=      5-min Rain = 0
KSP1 190955Z 34007KT 06/02 A2995 RMK A01 T00570015  RH  076%=      5-min Rain = 0
KSP1 191000Z 34007KT 06/02 A2995 RMK A01 T00550015  RH  076%=      5-min Rain = 0
KSP1 191005Z 34006KT 06/02 A2995 RMK A01 T00570016  RH  076%=      5-min Rain = 0
KSP1 191010Z 34007KT 06/02 A2994 RMK A01 T00580016  RH  075%=      5-min Rain = 0
KSP1 191015Z 34007KT 06/02 A2994 RMK A01 T00610016  RH  074%=      5-min Rain = 0
KSP1 191020Z 34006KT 06/02 A2994 RMK A01 T00640017  RH  073%=      5-min Rain = 0
KSP1 191025Z 34006KT 06/02 A2995 RMK A01 T00630016  RH  073%=      5-min Rain = 0
KSP1 191030Z 34006KT 06/02 A2995 RMK A01 T00610015  RH  073%=      5-min Rain = 0
KSP1 191035Z 34006KT 06/01 A2995 RMK A01 T00590014  RH  074%=      5-min Rain = 0
KSP1 191040Z 34006KT 06/02 A2995 RMK A01 T00590015  RH  074%=      5-min Rain = 0
KSP1 191045Z 34006KT 06/02 A2995 RMK A01 T00600015  RH  074%=      5-min Rain = 0
KSP1 191050Z 34007KT 06/02 A2994 RMK A01 T00590015  RH  074%=      5-min Rain = 0
KSP1 191055Z 34007KT 06/02 A2994 RMK A01 T00600015  RH  074%=      5-min Rain = 0
KSP1 191100Z 34006KT 06/02 A2994 RMK A01 T00610015  RH  074%=      5-min Rain = 0
KSP1 191105Z 34006KT 06/02 A2994 RMK A01 T00640016  RH  072%=      5-min Rain = 0
KSP1 191110Z 34006KT 06/02 A2994 RMK A01 T00620015  RH  073%=      5-min Rain = 0
KSP1 191115Z 34007KT 06/02 A2994 RMK A01 T00610015  RH  074%=      5-min Rain = 0
KSP1 191120Z 34007KT 06/02 A2994 RMK A01 T00620016  RH  073%=      5-min Rain = 0
KSP1 191125Z 34006KT 06/02 A2994 RMK A01 T00610015  RH  073%=      5-min Rain = 0
KSP1 191130Z 34006KT 06/02 A2994 RMK A01 T00580015  RH  075%=      5-min Rain = 0
KSP1 191135Z 33006KT 06/01 A2994 RMK A01 T00560014  RH  076%=      5-min Rain = 0
KSP1 191140Z 33006KT 06/01 A2994 RMK A01 T00550014  RH  076%=      5-min Rain = 0
KSP1 191145Z 34007KT 06/02 A2994 RMK A01 T00560015  RH  076%=      5-min Rain = 0
KSP1 191150Z 34006KT 05/01 A2994 RMK A01 T00530013  RH  077%=      5-min Rain = 0
KSP1 191155Z 33006KT 06/02 A2994 RMK A01 T00550015  RH  077%=      5-min Rain = 0
KSP1 191200Z 33006KT 06/01 A2994 RMK A01 T00550014  RH  076%=      5-min Rain = 0
KSP1 191205Z 33007KT 05/01 A2994 RMK A01 T00520013  RH  077%=      5-min Rain = 0
KSP1 191210Z 33006KT 05/01 A2994 RMK A01 T00490013  RH  078%=      5-min Rain = 0
KSP1 191215Z 33006KT 05/01 A2994 RMK A01 T00490013  RH  079%=      5-min Rain = 0
KSP1 191220Z 33006KT 05/01 A2994 RMK A01 T00490013  RH  079%=      5-min Rain = 0
KSP1 191225Z 33006KT 05/02 A2993 RMK A01 T00530015  RH  078%=      5-min Rain = 0
KSP1 191230Z 32007KT 05/02 A2993 RMK A01 T00540015  RH  077%=      5-min Rain = 0
KSP1 191235Z 32007KT 05/02 A2993 RMK A01 T00520015  RH  078%=      5-min Rain = 0
KSP1 191240Z 33007KT 05/01 A2993 RMK A01 T00520014  RH  077%=      5-min Rain = 0
KSP1 191245Z 33006KT 05/01 A2994 RMK A01 T00500013  RH  078%=      5-min Rain = 0
KSP1 191250Z 33005KT 05/01 A2994 RMK A01 T00470011  RH  078%=      5-min Rain = 0
KSP1 191255Z 33004KT 04/01 A2994 RMK A01 T00440011  RH  080%=      5-min Rain = 0
KSP1 191300Z 33004KT 05/01 A2994 RMK A01 T00460012  RH  080%=      5-min Rain = 0
KSP1 191305Z 33004KT 05/01 A2994 RMK A01 T00470012  RH  079%=      5-min Rain = 0
KSP1 191310Z 33004KT 05/01 A2994 RMK A01 T00460011  RH  079%=      5-min Rain = 0
KSP1 191315Z 34004KT 05/01 A2994 RMK A01 T00450011  RH  079%=      5-min Rain = 0
KSP1 191320Z 35005KT 05/01 A2994 RMK A01 T00500013  RH  078%=      5-min Rain = 0
KSP1 191325Z 34005KT 05/01 A2994 RMK A01 T00540013  RH  076%=      5-min Rain = 0
KSP1 191330Z 33006KT 05/01 A2994 RMK A01 T00490011  RH  078%=      5-min Rain = 0
KSP1 191335Z 35005KT 05/01 A2994 RMK A01 T00460012  RH  080%=      5-min Rain = 0
KSP1 191340Z 00004KT 05/02 A2994 RMK A01 T00510015  RH  078%=      5-min Rain = 0
KSP1 191345Z 34003KT 06/02 A2995 RMK A01 T00550015  RH  076%=      5-min Rain = 0
KSP1 191350Z 32003KT 06/02 A2995 RMK A01 T00580015  RH  075%=      5-min Rain = 0
KSP1 191355Z 31003KT 06/02 A2995 RMK A01 T00600016  RH  075%=      5-min Rain = 0
KSP1 191400Z 30003KT 06/02 A2995 RMK A01 T00630017  RH  073%=      5-min Rain = 0
KSP1 191405Z 26002KT 07/02 A2995 RMK A01 T00660019  RH  073%=      5-min Rain = 0
KSP1 191410Z 25002KT 07/02 A2995 RMK A01 T00710021  RH  072%=      5-min Rain = 0
KSP1 191415Z 24002KT 07/02 A2995 RMK A01 T00740022  RH  071%=      5-min Rain = 0
KSP1 191420Z 23002KT 07/02 A2995 RMK A01 T00730021  RH  071%=      5-min Rain = 0
KSP1 191425Z 20003KT 08/02 A2996 RMK A01 T00760022  RH  070%=      5-min Rain = 0
KSP1 191430Z 18003KT 08/03 A2996 RMK A01 T00820027  RH  070%=      5-min Rain = 0
KSP1 191435Z 18003KT 09/03 A2996 RMK A01 T00860028  RH  068%=      5-min Rain = 0
KSP1 191440Z 19003KT 09/03 A2996 RMK A01 T00940031  RH  066%=      5-min Rain = 0
KSP1 191445Z 20004KT 10/04 A2996 RMK A01 T01010035  RH  065%=      5-min Rain = 0
KSP1 191450Z 22004KT 10/04 A2996 RMK A01 T01030041  RH  067%=      5-min Rain = 0
KSP1 191455Z 22003KT 10/05 A2996 RMK A01 T01040045  RH  068%=      5-min Rain = 0
KSP1 191500Z 21002KT 11/04 A2996 RMK A01 T01070040  RH  065%=      5-min Rain = 0
KSP1 191505Z 22002KT 11/04 A2996 RMK A01 T01080035  RH  062%=      5-min Rain = 0
KSP1 191510Z 22002KT 11/04 A2996 RMK A01 T01100038  RH  062%=      5-min Rain = 0
KSP1 191515Z 21002KT 11/04 A2996 RMK A01 T01120038  RH  061%=      5-min Rain = 0
KSP1 191520Z 21002KT 12/04 A2996 RMK A01 T01160037  RH  059%=      5-min Rain = 0
KSP1 191525Z 23002KT 12/04 A2996 RMK A01 T01210039  RH  059%=      5-min Rain = 0
KSP1 191530Z 23003KT 13/04 A2996 RMK A01 T01280043  RH  057%=      5-min Rain = 0
KSP1 191535Z 23003KT 14/04 A2996 RMK A01 T01360044  RH  055%=      5-min Rain = 0
KSP1 191540Z 22003KT 14/04 A2996 RMK A01 T01420038  RH  051%=      5-min Rain = 0
KSP1 191545Z 22002KT 15/04 A2996 RMK A01 T01450037  RH  049%=      5-min Rain = 0
KSP1 191550Z 22003KT 15/04 A2996 RMK A01 T01490035  RH  047%=      5-min Rain = 0
KSP1 191555Z 21003KT 15/04 A2996 RMK A01 T01500036  RH  047%=      5-min Rain = 0
KSP1 191600Z 22003KT 15/04 A2996 RMK A01 T01520037  RH  047%=      5-min Rain = 0
KSP1 191605Z 22005KT 15/03 A2996 RMK A01 T01540034  RH  045%=      5-min Rain = 0
KSP1 191610Z 22004KT 16/03 A2996 RMK A01 T01600033  RH  043%=      5-min Rain = 0
KSP1 191615Z 21005KT 16/03 A2996 RMK A01 T01640032  RH  042%=      5-min Rain = 0
KSP1 191620Z 22006KT 17/03 A2996 RMK A01 T01680032  RH  041%=      5-min Rain = 0
KSP1 191625Z 22008G13KT 17/03 A2996 RMK A01 T01720033  RH  040%=      5-min Rain = 0
KSP1 191630Z 22009KT 18/04 A2996 RMK A01 T01750037  RH  041%=      5-min Rain = 0
KSP1 191635Z 22008G13KT 18/04 A2996 RMK A01 T01790040  RH  040%=      5-min Rain = 0
KSP1 191640Z 21009KT 18/04 A2996 RMK A01 T01830041  RH  040%=      5-min Rain = 0
KSP1 191645Z 22010KT 18/04 A2995 RMK A01 T01840041  RH  040%=      5-min Rain = 0
KSP1 191650Z 22010KT 19/04 A2995 RMK A01 T01870042  RH  039%=      5-min Rain = 0
KSP1 191655Z 21010G15KT 19/04 A2995 RMK A01 T01880042  RH  039%=      5-min Rain = 0
KSP1 191700Z 22010KT 19/04 A2995 RMK A01 T01910044  RH  039%=      5-min Rain = 0
KSP1 191705Z 21009KT 19/05 A2995 RMK A01 T01940046  RH  039%=      5-min Rain = 0
KSP1 191710Z 22009KT 20/05 A2994 RMK A01 T01980047  RH  038%=      5-min Rain = 0
KSP1 191715Z 20009KT 20/05 A2994 RMK A01 T01980046  RH  038%=      5-min Rain = 0
KSP1 191720Z 21010KT 20/05 A2994 RMK A01 T02000047  RH  037%=      5-min Rain = 0
KSP1 191725Z 22011KT 20/05 A2993 RMK A01 T02010046  RH  037%=      5-min Rain = 0
KSP1 191730Z 21009KT 20/05 A2993 RMK A01 T01980047  RH  038%=      5-min Rain = 0
KSP1 191735Z 21009KT 20/05 A2993 RMK A01 T02020049  RH  037%=      5-min Rain = 0
KSP1 191740Z 22009KT 20/05 A2993 RMK A01 T02010049  RH  037%=      5-min Rain = 0
KSP1 191745Z 21008KT 20/05 A2993 RMK A01 T02010050  RH  038%=      5-min Rain = 0
KSP1 191750Z 21009KT 21/05 A2992 RMK A01 T02100051  RH  036%=      5-min Rain = 0
KSP1 191755Z 21009KT 21/05 A2992 RMK A01 T02120049  RH  035%=      5-min Rain = 0
KSP1 191800Z 22011KT 21/05 A2992 RMK A01 T02090048  RH  035%=      5-min Rain = 0
KSP1 191805Z 20008KT 21/05 A2992 RMK A01 T02100051  RH  036%=      5-min Rain = 0
KSP1 191810Z 20009KT 21/05 A2991 RMK A01 T02140052  RH  035%=      5-min Rain = 0
KSP1 191815Z 20009KT 22/05 A2991 RMK A01 T02170052  RH  035%=      5-min Rain = 0
KSP1 191820Z 18009KT 22/05 A2991 RMK A01 T02200054  RH  035%=      5-min Rain = 0
KSP1 191825Z 19008KT 22/06 A2991 RMK A01 T02240055  RH  034%=      5-min Rain = 0
KSP1 191830Z 19009KT 22/05 A299 RMK A01 T02240051  RH  033%=      5-min Rain = 0
KSP1 191835Z 20010KT 23/05 A2989 RMK A01 T02260050  RH  032%=      5-min Rain = 0
KSP1 191840Z 20011KT 23/05 A2989 RMK A01 T02300051  RH  032%=      5-min Rain = 0
KSP1 191845Z 20010G17KT 23/05 A2989 RMK A01 T02340049  RH  031%=      5-min Rain = 0
KSP1 191850Z 20013KT 24/04 A2988 RMK A01 T02350043  RH  029%=      5-min Rain = 0
KSP1 191855Z 21012KT 24/05 A2988 RMK A01 T02350046  RH  030%=      5-min Rain = 0
KSP1 191900Z 19010KT 24/05 A2988 RMK A01 T02350050  RH  031%=      5-min Rain = 0
KSP1 191905Z 19010G15KT 24/05 A2988 RMK A01 T02370048  RH  030%=      5-min Rain = 0
KSP1 191910Z 19011KT 24/05 A2987 RMK A01 T02390047  RH  029%=      5-min Rain = 0
KSP1 191915Z 18011KT 24/05 A2987 RMK A01 T02430045  RH  028%=      5-min Rain = 0
KSP1 191920Z 18013G20KT 24/04 A2987 RMK A01 T02420041  RH  028%=      5-min Rain = 0
KSP1 191925Z 19013G20KT 24/04 A2986 RMK A01 T02440040  RH  027%=      5-min Rain = 0
KSP1 191930Z 19013KT 24/04 A2986 RMK A01 T02430037  RH  027%=      5-min Rain = 0
KSP1 191935Z 20012KT 25/04 A2986 RMK A01 T02480038  RH  026%=      5-min Rain = 0
KSP1 191940Z 20012G18KT 25/04 A2986 RMK A01 T02490038  RH  026%=      5-min Rain = 0
KSP1 191945Z 20014G19KT 25/04 A2985 RMK A01 T02480037  RH  026%=      5-min Rain = 0
KSP1 191950Z 20016G21KT 25/04 A2985 RMK A01 T02470037  RH  026%=      5-min Rain = 0
KSP1 191955Z 19014KT 25/04 A2985 RMK A01 T02460038  RH  026%=      5-min Rain = 0
KSP1 192000Z 21013G18KT 25/04 A2985 RMK A01 T02490040  RH  026%=      5-min Rain = 0
KSP1 192005Z 20012KT 25/04 A2985 RMK A01 T02510044  RH  027%=      5-min Rain = 0
KSP1 192010Z 21012G17KT 26/04 A2984 RMK A01 T02550039  RH  025%=      5-min Rain = 0
KSP1 192015Z 20012G18KT 26/04 A2984 RMK A01 T02560035  RH  024%=      5-min Rain = 0
KSP1 192020Z 20015KT 26/03 A2984 RMK A01 T02560030  RH  024%=      5-min Rain = 0
KSP1 192025Z 20015G20KT 26/03 A2983 RMK A01 T02550027  RH  023%=      5-min Rain = 0
KSP1 192030Z 20015G20KT 26/03 A2983 RMK A01 T02560027  RH  023%=      5-min Rain = 0
KSP1 192035Z 20014G21KT 26/03 A2983 RMK A01 T02580031  RH  023%=      5-min Rain = 0
KSP1 192040Z 20014G19KT 26/03 A2983 RMK A01 T02550029  RH  023%=      5-min Rain = 0
KSP1 192045Z 20014G20KT 25/03 A2983 RMK A01 T02540031  RH  024%=      5-min Rain = 0
KSP1 192050Z 20014G19KT 25/03 A2982 RMK A01 T02540034  RH  024%=      5-min Rain = 0
KSP1 192055Z 19014KT 25/04 A2982 RMK A01 T02530037  RH  025%=      5-min Rain = 0
KSP1 192100Z 19012G17KT 25/04 A2982 RMK A01 T02540039  RH  025%=      5-min Rain = 0
KSP1 192105Z 20014KT 26/04 A2982 RMK A01 T02550042  RH  026%=      5-min Rain = 0
KSP1 192110Z 19013KT 25/04 A2982 RMK A01 T02530043  RH  026%=      5-min Rain = 0
KSP1 192115Z 20013G19KT 25/05 A2982 RMK A01 T02530046  RH  027%=      5-min Rain = 0
KSP1 192120Z 20011KT 26/05 A2982 RMK A01 T02550047  RH  027%=      5-min Rain = 0
KSP1 192125Z 19012G17KT 25/05 A2982 RMK A01 T02540050  RH  027%=      5-min Rain = 0
KSP1 192130Z 19014G19KT 25/05 A2981 RMK A01 T02520051  RH  028%=      5-min Rain = 0
KSP1 192135Z 20011G19KT 25/05 A2981 RMK A01 T02520051  RH  028%=      5-min Rain = 0
KSP1 192140Z 19012G17KT 25/05 A2981 RMK A01 T02530051  RH  028%=      5-min Rain = 0
KSP1 192145Z 20013KT 26/05 A2981 RMK A01 T02550050  RH  027%=      5-min Rain = 0
KSP1 192150Z 19011KT 25/05 A298 RMK A01 T02540051  RH  028%=      5-min Rain = 0
KSP1 192155Z 19010KT 25/05 A298 RMK A01 T02510051  RH  028%=      5-min Rain = 0
KSP1 192200Z 19010G16KT 25/05 A298 RMK A01 T02520050  RH  028%=      5-min Rain = 0
KSP1 192205Z 18010G17KT 25/05 A298 RMK A01 T02530047  RH  027%=      5-min Rain = 0
KSP1 192210Z 17010KT 25/05 A298 RMK A01 T02510047  RH  027%=      5-min Rain = 0
KSP1 192215Z 18010KT 25/05 A298 RMK A01 T02500045  RH  027%=      5-min Rain = 0
KSP1 192220Z 18010KT 25/04 A298 RMK A01 T02510039  RH  026%=      5-min Rain = 0
KSP1 192225Z 20013KT 25/03 A298 RMK A01 T02510034  RH  025%=      5-min Rain = 0
KSP1 192230Z 19011KT 25/03 A298 RMK A01 T02520033  RH  025%=      5-min Rain = 0
KSP1 192235Z 19009KT 26/03 A298 RMK A01 T02550034  RH  024%=      5-min Rain = 0
KSP1 192240Z 18009KT 26/04 A298 RMK A01 T02550036  RH  025%=      5-min Rain = 0
KSP1 192245Z 18009G14KT 25/04 A298 RMK A01 T02540035  RH  025%=      5-min Rain = 0
KSP1 192250Z 19010G15KT 25/03 A298 RMK A01 T02510030  RH  024%=      5-min Rain = 0
KSP1 192255Z 18008KT 25/03 A298 RMK A01 T02460033  RH  025%=      5-min Rain = 0
KSP1 192300Z 18007KT 24/04 A298 RMK A01 T02400036  RH  027%=      5-min Rain = 0
KSP1 192305Z 18008KT 24/04 A298 RMK A01 T02360036  RH  028%=      5-min Rain = 0
KSP1 192310Z 18008KT 24/04 A298 RMK A01 T02350036  RH  028%=      5-min Rain = 0
KSP1 192315Z 17008KT 23/04 A298 RMK A01 T02340037  RH  028%=      5-min Rain = 0
KSP1 192320Z 17007KT 23/04 A2979 RMK A01 T02300038  RH  029%=      5-min Rain = 0
KSP1 192325Z 17006KT 23/04 A2979 RMK A01 T02250039  RH  030%=      5-min Rain = 0
KSP1 192330Z 17006KT 22/04 A298 RMK A01 T02200040  RH  031%=      5-min Rain = 0
KSP1 192335Z 17006KT 22/04 A298 RMK A01 T02150040  RH  032%=      5-min Rain = 0
KSP1 192340Z 17006KT 21/04 A298 RMK A01 T02090040  RH  034%=      5-min Rain = 0
KSP1 192345Z 17006KT 21/04 A298 RMK A01 T02060041  RH  034%=      5-min Rain = 0
KSP1 192350Z 17006KT 20/04 A298 RMK A01 T02040041  RH  035%=      5-min Rain = 0
KSP1 192355Z 17005KT 20/04 A298 RMK A01 T02000041  RH  036%=      5-min Rain = 0
KSP1 200000Z 17005KT 20/04 A298 RMK A01 T01970041  RH  036%=      5-min Rain = 0
KSP1 200005Z 16005KT 19/04 A298 RMK A01 T01940041  RH  037%=      5-min Rain = 0
KSP1 200010Z 16005KT 19/04 A2979 RMK A01 T01920040  RH  037%=      5-min Rain = 0
KSP1 200015Z 16005KT 19/04 A2979 RMK A01 T01920040  RH  037%=      5-min Rain = 0
KSP1 200020Z 16005KT 19/04 A298 RMK A01 T01920039  RH  037%=      5-min Rain = 0
KSP1 200025Z 15004KT 19/04 A298 RMK A01 T01900039  RH  038%=      5-min Rain = 0
KSP1 200030Z 16005KT 19/04 A298 RMK A01 T01860040  RH  039%=      5-min Rain = 0
KSP1 200035Z 15005KT 18/04 A298 RMK A01 T01830040  RH  040%=      5-min Rain = 0
KSP1 200040Z 15005KT 18/04 A298 RMK A01 T01800042  RH  041%=      5-min Rain = 0
KSP1 200045Z 15005KT 18/04 A298 RMK A01 T01790043  RH  041%=      5-min Rain = 0
KSP1 200050Z 15006KT 18/04 A298 RMK A01 T01770044  RH  042%=      5-min Rain = 0
KSP1 200055Z 15006KT 17/05 A298 RMK A01 T01730045  RH  044%=      5-min Rain = 0
KSP1 200100Z 14005KT 17/05 A298 RMK A01 T01700046  RH  045%=      5-min Rain = 0
KSP1 200105Z 14005KT 17/05 A298 RMK A01 T01680046  RH  045%=      5-min Rain = 0
KSP1 200110Z 15005KT 17/05 A298 RMK A01 T01670047  RH  046%=      5-min Rain = 0
KSP1 200115Z 15005KT 17/05 A298 RMK A01 T01650047  RH  047%=      5-min Rain = 0
KSP1 200120Z 14004KT 16/05 A298 RMK A01 T01620048  RH  048%=      5-min Rain = 0
KSP1 200125Z 13004KT 16/05 A298 RMK A01 T01630049  RH  048%=      5-min Rain = 0
KSP1 200130Z 14005KT 17/05 A298 RMK A01 T01660051  RH  048%=      5-min Rain = 0
KSP1 200135Z 15005KT 16/05 A298 RMK A01 T01640052  RH  049%=      5-min Rain = 0
KSP1 200140Z 15006KT 16/05 A298 RMK A01 T01610053  RH  050%=      5-min Rain = 0
KSP1 200145Z 15007KT 16/06 A298 RMK A01 T01600056  RH  051%=      5-min Rain = 0
KSP1 200150Z 16007KT 17/06 A298 RMK A01 T01670060  RH  050%=      5-min Rain = 0
KSP1 200155Z 16008KT 18/06 A298 RMK A01 T01750062  RH  049%=      5-min Rain = 0
KSP1 200200Z 16008KT 18/06 A298 RMK A01 T01790061  RH  047%=      5-min Rain = 0
KSP1 200205Z 17007KT 18/06 A298 RMK A01 T01770062  RH  048%=      5-min Rain = 0
KSP1 200210Z 17007KT 18/06 A2981 RMK A01 T01750062  RH  049%=      5-min Rain = 0
KSP1 200215Z 17007KT 17/06 A2981 RMK A01 T01710062  RH  050%=      5-min Rain = 0
KSP1 200220Z 17006KT 17/06 A2981 RMK A01 T01660061  RH  051%=      5-min Rain = 0
KSP1 200225Z 17006KT 16/06 A2981 RMK A01 T01620061  RH  052%=      5-min Rain = 0
KSP1 200230Z 17006KT 16/06 A2981 RMK A01 T01580060  RH  053%=      5-min Rain = 0
KSP1 200235Z 17006KT 15/06 A2981 RMK A01 T01540060  RH  054%=      5-min Rain = 0
KSP1 200240Z 17006KT 15/06 A2981 RMK A01 T01520059  RH  055%=      5-min Rain = 0
KSP1 200245Z 17006KT 15/06 A2981 RMK A01 T01500059  RH  056%=      5-min Rain = 0
KSP1 200250Z 18006KT 15/06 A2981 RMK A01 T01480059  RH  056%=      5-min Rain = 0
KSP1 200255Z 19006KT 15/06 A2981 RMK A01 T01480059  RH  057%=      5-min Rain = 0
KSP1 200300Z 19006KT 15/06 A2981 RMK A01 T01470060  RH  057%=      5-min Rain = 0
KSP1 200305Z 19006KT 15/06 A2981 RMK A01 T01470060  RH  057%=      5-min Rain = 0
KSP1 200310Z 19006KT 15/06 A2981 RMK A01 T01510061  RH  057%=      5-min Rain = 0
KSP1 200315Z 19007KT 16/06 A2981 RMK A01 T01590063  RH  054%=      5-min Rain = 0
KSP1 200320Z 19007KT 17/06 A2981 RMK A01 T01690064  RH  051%=      5-min Rain = 0
KSP1 200325Z 19007KT 17/06 A2981 RMK A01 T01720064  RH  050%=      5-min Rain = 0
KSP1 200330Z 19007KT 17/06 A2982 RMK A01 T01700064  RH  051%=      5-min Rain = 0
KSP1 200335Z 19007KT 17/06 A2982 RMK A01 T01680064  RH  052%=      5-min Rain = 0
KSP1 200340Z 19007KT 17/06 A2981 RMK A01 T01660064  RH  052%=      5-min Rain = 0
KSP1 200345Z 19006KT 16/06 A2981 RMK A01 T01640064  RH  053%=      5-min Rain = 0
KSP1 200350Z 18006KT 16/06 A2981 RMK A01 T01630064  RH  053%=      5-min Rain = 0
KSP1 200355Z 19006KT 16/06 A2981 RMK A01 T01620064  RH  053%=      5-min Rain = 0
KSP1 200400Z 19006KT 16/06 A2981 RMK A01 T01600064  RH  054%=      5-min Rain = 0
KSP1 200405Z 19005KT 16/06 A2981 RMK A01 T01590063  RH  054%=      5-min Rain = 0
KSP1 200410Z 19004KT 16/06 A2981 RMK A01 T01550063  RH  055%=      5-min Rain = 0
KSP1 200415Z 19004KT 15/06 A2981 RMK A01 T01520062  RH  056%=      5-min Rain = 0
KSP1 200420Z 19004KT 15/06 A2981 RMK A01 T01480062  RH  057%=      5-min Rain = 0
KSP1 200425Z 19003KT 15/06 A2981 RMK A01 T01470062  RH  058%=      5-min Rain = 0
KSP1 200430Z 21003KT 15/06 A2981 RMK A01 T01450061  RH  058%=      5-min Rain = 0
KSP1 200435Z 20004KT 14/06 A2981 RMK A01 T01390060  RH  060%=      5-min Rain = 0
KSP1 200440Z 20004KT 14/06 A2981 RMK A01 T01370060  RH  061%=      5-min Rain = 0
KSP1 200445Z 20005KT 14/06 A2981 RMK A01 T01370060  RH  061%=      5-min Rain = 0
KSP1 200450Z 20005KT 14/06 A2981 RMK A01 T01370060  RH  061%=      5-min Rain = 0
KSP1 200455Z 20004KT 14/06 A2981 RMK A01 T01370061  RH  061%=      5-min Rain = 0
KSP1 200500Z 21004KT 14/06 A2981 RMK A01 T01380061  RH  061%=      5-min Rain = 0
KSP1 200505Z 21005KT 14/06 A2981 RMK A01 T01390063  RH  062%=      5-min Rain = 0
KSP1 200510Z 21005KT 14/06 A2981 RMK A01 T01390063  RH  062%=      5-min Rain = 0
KSP1 200515Z 21004KT 14/06 A2981 RMK A01 T01370063  RH  062%=      5-min Rain = 0
KSP1 200520Z 22004KT 14/06 A2981 RMK A01 T01350063  RH  063%=      5-min Rain = 0
KSP1 200525Z 22004KT 13/06 A2981 RMK A01 T01330063  RH  064%=      5-min Rain = 0
KSP1 200530Z 23004KT 13/06 A2982 RMK A01 T01320063  RH  065%=      5-min Rain = 0
KSP1 200535Z 24004KT 13/06 A2982 RMK A01 T01310062  RH  064%=      5-min Rain = 0
KSP1 200540Z 25005KT 13/06 A2982 RMK A01 T01270061  RH  065%=      5-min Rain = 0
KSP1 200545Z 23004KT 12/06 A2981 RMK A01 T01240061  RH  067%=      5-min Rain = 0
KSP1 200550Z 23005KT 13/07 A2981 RMK A01 T01280065  RH  067%=      5-min Rain = 0
KSP1 200555Z 22005KT 14/07 A2981 RMK A01 T01350069  RH  066%=      5-min Rain = 0

Page generated in 0.0092 seconds.